sensor_id;sensor_type;location;lat;lon;timestamp;temperature;humidity
67572;SHT31;54397;47.506;19.158;2023-01-26T00:00:32;4.55;80.60
67572;SHT31;54397;47.506;19.158;2023-01-26T00:03:55;4.65;80.63
67572;SHT31;54397;47.506;19.158;2023-01-26T00:07:16;4.64;80.51
67572;SHT31;54397;47.506;19.158;2023-01-26T00:10:39;4.66;80.25
67572;SHT31;54397;47.506;19.158;2023-01-26T00:14:01;4.68;80.07
67572;SHT31;54397;47.506;19.158;2023-01-26T00:17:26;4.72;80.07
67572;SHT31;54397;47.506;19.158;2023-01-26T00:20:54;4.69;79.73
67572;SHT31;54397;47.506;19.158;2023-01-26T00:24:18;4.61;80.32
67572;SHT31;54397;47.506;19.158;2023-01-26T00:27:39;4.56;80.27
67572;SHT31;54397;47.506;19.158;2023-01-26T00:31:05;4.47;80.92
67572;SHT31;54397;47.506;19.158;2023-01-26T00:34:28;4.40;81.03
67572;SHT31;54397;47.506;19.158;2023-01-26T00:37:52;4.38;81.53
67572;SHT31;54397;47.506;19.158;2023-01-26T00:41:17;4.55;80.78
67572;SHT31;54397;47.506;19.158;2023-01-26T00:44:57;4.56;80.40
67572;SHT31;54397;47.506;19.158;2023-01-26T00:48:21;4.66;80.65
67572;SHT31;54397;47.506;19.158;2023-01-26T00:51:45;4.56;80.27
67572;SHT31;54397;47.506;19.158;2023-01-26T00:55:07;4.34;81.49
67572;SHT31;54397;47.506;19.158;2023-01-26T00:58:32;4.33;81.61
67572;SHT31;54397;47.506;19.158;2023-01-26T01:01:53;4.40;80.54
67572;SHT31;54397;47.506;19.158;2023-01-26T01:05:15;4.34;80.03
67572;SHT31;54397;47.506;19.158;2023-01-26T01:08:37;4.44;80.09
67572;SHT31;54397;47.506;19.158;2023-01-26T01:12:01;4.38;80.66
67572;SHT31;54397;47.506;19.158;2023-01-26T01:15:25;4.36;81.10
67572;SHT31;54397;47.506;19.158;2023-01-26T01:18:47;4.42;80.45
67572;SHT31;54397;47.506;19.158;2023-01-26T01:22:09;4.42;80.61
67572;SHT31;54397;47.506;19.158;2023-01-26T01:25:30;4.49;79.85
67572;SHT31;54397;47.506;19.158;2023-01-26T01:28:54;4.59;80.45
67572;SHT31;54397;47.506;19.158;2023-01-26T01:32:19;4.52;80.40
67572;SHT31;54397;47.506;19.158;2023-01-26T01:35:43;4.45;79.62
67572;SHT31;54397;47.506;19.158;2023-01-26T01:39:07;4.40;79.99
67572;SHT31;54397;47.506;19.158;2023-01-26T01:42:29;4.47;79.51
67572;SHT31;54397;47.506;19.158;2023-01-26T01:45:51;4.40;78.67
67572;SHT31;54397;47.506;19.158;2023-01-26T01:49:32;4.38;79.04
67572;SHT31;54397;47.506;19.158;2023-01-26T01:52:55;4.30;78.70
67572;SHT31;54397;47.506;19.158;2023-01-26T01:56:20;4.24;79.29
67572;SHT31;54397;47.506;19.158;2023-01-26T01:59:50;4.22;78.51
67572;SHT31;54397;47.506;19.158;2023-01-26T02:03:15;4.18;78.26
67572;SHT31;54397;47.506;19.158;2023-01-26T02:10:08;4.16;78.76
67572;SHT31;54397;47.506;19.158;2023-01-26T02:13:40;4.14;79.15
67572;SHT31;54397;47.506;19.158;2023-01-26T02:17:04;4.11;79.28
67572;SHT31;54397;47.506;19.158;2023-01-26T02:27:22;3.99;78.36
67572;SHT31;54397;47.506;19.158;2023-01-26T02:30:44;3.94;79.76
67572;SHT31;54397;47.506;19.158;2023-01-26T02:34:07;3.96;79.46
67572;SHT31;54397;47.506;19.158;2023-01-26T02:37:28;4.07;78.49
67572;SHT31;54397;47.506;19.158;2023-01-26T02:40:54;4.11;78.12
67572;SHT31;54397;47.506;19.158;2023-01-26T02:44:16;4.13;77.78
67572;SHT31;54397;47.506;19.158;2023-01-26T02:47:38;4.07;77.61
67572;SHT31;54397;47.506;19.158;2023-01-26T02:51:01;4.01;78.45
67572;SHT31;54397;47.506;19.158;2023-01-26T02:54:27;4.01;78.69
67572;SHT31;54397;47.506;19.158;2023-01-26T02:58:07;4.03;78.35
67572;SHT31;54397;47.506;19.158;2023-01-26T03:01:29;4.00;78.39
67572;SHT31;54397;47.506;19.158;2023-01-26T03:04:52;4.00;78.55
67572;SHT31;54397;47.506;19.158;2023-01-26T03:08:17;4.03;78.63
67572;SHT31;54397;47.506;19.158;2023-01-26T03:11:38;4.07;79.07
67572;SHT31;54397;47.506;19.158;2023-01-26T03:15:04;4.13;78.79
67572;SHT31;54397;47.506;19.158;2023-01-26T03:18:46;4.28;78.59
67572;SHT31;54397;47.506;19.158;2023-01-26T03:22:27;4.27;77.84
67572;SHT31;54397;47.506;19.158;2023-01-26T03:26:20;4.14;78.01
67572;SHT31;54397;47.506;19.158;2023-01-26T03:30:01;4.06;78.35
67572;SHT31;54397;47.506;19.158;2023-01-26T03:33:27;4.03;78.41
67572;SHT31;54397;47.506;19.158;2023-01-26T03:36:49;4.06;78.14
67572;SHT31;54397;47.506;19.158;2023-01-26T03:40:11;4.00;79.15
67572;SHT31;54397;47.506;19.158;2023-01-26T03:43:54;4.10;78.48
67572;SHT31;54397;47.506;19.158;2023-01-26T03:47:35;4.07;77.93
67572;SHT31;54397;47.506;19.158;2023-01-26T03:51:15;4.03;77.72
67572;SHT31;54397;47.506;19.158;2023-01-26T03:54:55;4.06;77.18
67572;SHT31;54397;47.506;19.158;2023-01-26T03:58:37;3.94;75.95
67572;SHT31;54397;47.506;19.158;2023-01-26T04:01:59;3.99;77.19
67572;SHT31;54397;47.506;19.158;2023-01-26T04:05:41;3.99;77.33
67572;SHT31;54397;47.506;19.158;2023-01-26T04:09:39;4.01;78.12
67572;SHT31;54397;47.506;19.158;2023-01-26T04:13:01;3.96;75.40
67572;SHT31;54397;47.506;19.158;2023-01-26T04:16:41;3.87;76.43
67572;SHT31;54397;47.506;19.158;2023-01-26T04:20:20;3.82;75.05
67572;SHT31;54397;47.506;19.158;2023-01-26T04:24:03;3.83;76.61
67572;SHT31;54397;47.506;19.158;2023-01-26T04:27:30;3.80;76.12
67572;SHT31;54397;47.506;19.158;2023-01-26T04:30:55;3.78;76.21
67572;SHT31;54397;47.506;19.158;2023-01-26T04:34:16;3.82;76.90
67572;SHT31;54397;47.506;19.158;2023-01-26T04:37:38;3.79;76.30
67572;SHT31;54397;47.506;19.158;2023-01-26T04:41:01;3.82;77.22
67572;SHT31;54397;47.506;19.158;2023-01-26T04:44:25;3.99;76.82
67572;SHT31;54397;47.506;19.158;2023-01-26T04:47:51;4.16;76.06
67572;SHT31;54397;47.506;19.158;2023-01-26T04:51:19;4.21;75.93
67572;SHT31;54397;47.506;19.158;2023-01-26T04:54:41;4.22;75.38
67572;SHT31;54397;47.506;19.158;2023-01-26T04:58:05;4.11;76.08
67572;SHT31;54397;47.506;19.158;2023-01-26T05:01:26;4.08;75.78
67572;SHT31;54397;47.506;19.158;2023-01-26T05:04:48;4.07;75.90
67572;SHT31;54397;47.506;19.158;2023-01-26T05:08:10;4.10;75.58
67572;SHT31;54397;47.506;19.158;2023-01-26T05:11:32;4.08;75.75
67572;SHT31;54397;47.506;19.158;2023-01-26T05:14:53;4.03;76.58
67572;SHT31;54397;47.506;19.158;2023-01-26T05:18:15;3.86;77.78
67572;SHT31;54397;47.506;19.158;2023-01-26T05:21:36;3.80;77.97
67572;SHT31;54397;47.506;19.158;2023-01-26T05:25:00;3.93;77.59
67572;SHT31;54397;47.506;19.158;2023-01-26T05:28:22;3.91;77.08
67572;SHT31;54397;47.506;19.158;2023-01-26T05:31:48;4.00;76.61
67572;SHT31;54397;47.506;19.158;2023-01-26T05:35:10;4.07;78.41
67572;SHT31;54397;47.506;19.158;2023-01-26T05:38:32;4.11;76.04
67572;SHT31;54397;47.506;19.158;2023-01-26T05:41:54;4.16;75.46
67572;SHT31;54397;47.506;19.158;2023-01-26T05:45:19;4.24;75.56
67572;SHT31;54397;47.506;19.158;2023-01-26T05:48:40;4.25;75.08
67572;SHT31;54397;47.506;19.158;2023-01-26T05:52:24;4.20;75.10
67572;SHT31;54397;47.506;19.158;2023-01-26T05:55:46;4.10;75.34
67572;SHT31;54397;47.506;19.158;2023-01-26T05:59:08;4.10;75.27
67572;SHT31;54397;47.506;19.158;2023-01-26T06:02:32;4.01;75.57
67572;SHT31;54397;47.506;19.158;2023-01-26T06:05:56;3.96;75.94
67572;SHT31;54397;47.506;19.158;2023-01-26T06:09:18;3.97;75.72
67572;SHT31;54397;47.506;19.158;2023-01-26T06:12:40;4.00;74.54
67572;SHT31;54397;47.506;19.158;2023-01-26T06:16:03;3.89;75.63
67572;SHT31;54397;47.506;19.158;2023-01-26T06:19:25;3.86;75.63
67572;SHT31;54397;47.506;19.158;2023-01-26T06:22:49;3.85;76.20
67572;SHT31;54397;47.506;19.158;2023-01-26T06:26:10;3.78;76.20
67572;SHT31;54397;47.506;19.158;2023-01-26T06:29:32;3.78;76.62
67572;SHT31;54397;47.506;19.158;2023-01-26T06:32:56;3.86;76.09
67572;SHT31;54397;47.506;19.158;2023-01-26T06:36:22;4.03;75.37
67572;SHT31;54397;47.506;19.158;2023-01-26T06:39:44;4.08;75.18
67572;SHT31;54397;47.506;19.158;2023-01-26T06:43:06;3.99;76.63
67572;SHT31;54397;47.506;19.158;2023-01-26T06:46:30;4.10;76.28
67572;SHT31;54397;47.506;19.158;2023-01-26T06:49:51;3.97;78.55
67572;SHT31;54397;47.506;19.158;2023-01-26T06:53:36;4.07;76.69
67572;SHT31;54397;47.506;19.158;2023-01-26T06:56:58;4.04;76.94
67572;SHT31;54397;47.506;19.158;2023-01-26T07:00:24;3.91;77.24
67572;SHT31;54397;47.506;19.158;2023-01-26T07:03:47;3.99;76.86
67572;SHT31;54397;47.506;19.158;2023-01-26T07:07:09;4.07;76.45
67572;SHT31;54397;47.506;19.158;2023-01-26T07:10:31;4.00;76.12
67572;SHT31;54397;47.506;19.158;2023-01-26T07:13:52;3.87;77.04
67572;SHT31;54397;47.506;19.158;2023-01-26T07:17:16;3.85;77.39
67572;SHT31;54397;47.506;19.158;2023-01-26T07:20:40;3.76;76.67
67572;SHT31;54397;47.506;19.158;2023-01-26T07:24:02;3.73;75.90
67572;SHT31;54397;47.506;19.158;2023-01-26T07:27:24;3.72;75.31
67572;SHT31;54397;47.506;19.158;2023-01-26T07:30:47;3.76;74.60
67572;SHT31;54397;47.506;19.158;2023-01-26T07:34:10;3.70;74.15
67572;SHT31;54397;47.506;19.158;2023-01-26T07:37:32;3.78;74.31
67572;SHT31;54397;47.506;19.158;2023-01-26T07:40:54;4.49;91.56
67572;SHT31;54397;47.506;19.158;2023-01-26T07:44:16;5.19;83.59
67572;SHT31;54397;47.506;19.158;2023-01-26T07:47:38;5.69;78.61
67572;SHT31;54397;47.506;19.158;2023-01-26T07:51:01;5.81;75.21
67572;SHT31;54397;47.506;19.158;2023-01-26T07:54:24;5.73;67.77
67572;SHT31;54397;47.506;19.158;2023-01-26T07:57:49;5.24;68.42
67572;SHT31;54397;47.506;19.158;2023-01-26T08:01:13;4.93;70.15
67572;SHT31;54397;47.506;19.158;2023-01-26T08:04:37;4.71;70.69
67572;SHT31;54397;47.506;19.158;2023-01-26T08:08:01;4.45;71.64
67572;SHT31;54397;47.506;19.158;2023-01-26T08:11:25;4.36;71.57
67572;SHT31;54397;47.506;19.158;2023-01-26T08:14:47;4.31;71.84
67572;SHT31;54397;47.506;19.158;2023-01-26T08:18:09;4.18;72.16
67572;SHT31;54397;47.506;19.158;2023-01-26T08:21:30;4.31;72.80
67572;SHT31;54397;47.506;19.158;2023-01-26T08:24:52;4.41;72.71
67572;SHT31;54397;47.506;19.158;2023-01-26T08:28:13;4.40;71.50
67572;SHT31;54397;47.506;19.158;2023-01-26T08:31:36;4.34;72.26
67572;SHT31;54397;47.506;19.158;2023-01-26T08:35:03;4.25;73.02
67572;SHT31;54397;47.506;19.158;2023-01-26T08:38:29;4.21;73.15
67572;SHT31;54397;47.506;19.158;2023-01-26T08:41:53;4.16;72.79
67572;SHT31;54397;47.506;19.158;2023-01-26T08:45:14;4.17;72.70
67572;SHT31;54397;47.506;19.158;2023-01-26T08:48:36;4.08;71.99
67572;SHT31;54397;47.506;19.158;2023-01-26T08:51:59;4.04;72.08
67572;SHT31;54397;47.506;19.158;2023-01-26T08:55:20;4.08;71.92
67572;SHT31;54397;47.506;19.158;2023-01-26T08:58:42;4.14;71.21
67572;SHT31;54397;47.506;19.158;2023-01-26T09:02:03;4.01;72.33
67572;SHT31;54397;47.506;19.158;2023-01-26T09:05:26;4.38;80.32
67572;SHT31;54397;47.506;19.158;2023-01-26T09:08:48;5.41;81.54
67572;SHT31;54397;47.506;19.158;2023-01-26T09:12:09;5.90;74.27
67572;SHT31;54397;47.506;19.158;2023-01-26T09:15:36;5.86;72.66
67572;SHT31;54397;47.506;19.158;2023-01-26T09:18:58;5.83;74.18
67572;SHT31;54397;47.506;19.158;2023-01-26T09:22:20;5.78;75.20
67572;SHT31;54397;47.506;19.158;2023-01-26T09:25:41;5.59;67.19
67572;SHT31;54397;47.506;19.158;2023-01-26T09:29:03;5.14;67.77
67572;SHT31;54397;47.506;19.158;2023-01-26T09:32:27;4.87;68.48
67572;SHT31;54397;47.506;19.158;2023-01-26T09:35:50;4.59;69.51
67572;SHT31;54397;47.506;19.158;2023-01-26T09:39:16;4.45;70.44
67572;SHT31;54397;47.506;19.158;2023-01-26T09:42:45;4.34;70.95
67572;SHT31;54397;47.506;19.158;2023-01-26T09:50:07;4.25;71.04
67572;SHT31;54397;47.506;19.158;2023-01-26T09:54:13;4.24;71.29
67572;SHT31;54397;47.506;19.158;2023-01-26T09:57:22;4.24;71.94
67572;SHT31;54397;47.506;19.158;2023-01-26T10:00:51;4.24;72.06
67572;SHT31;54397;47.506;19.158;2023-01-26T10:07:45;4.18;70.16
67572;SHT31;54397;47.506;19.158;2023-01-26T10:11:15;4.93;85.72
67572;SHT31;54397;47.506;19.158;2023-01-26T10:14:45;5.68;79.81
67572;SHT31;54397;47.506;19.158;2023-01-26T10:18:20;5.92;73.00
67572;SHT31;54397;47.506;19.158;2023-01-26T10:21:44;6.03;73.07
67572;SHT31;54397;47.506;19.158;2023-01-26T10:25:17;5.89;72.19
67572;SHT31;54397;47.506;19.158;2023-01-26T10:28:41;5.98;73.27
67572;SHT31;54397;47.506;19.158;2023-01-26T10:32:03;5.72;66.16
67572;SHT31;54397;47.506;19.158;2023-01-26T10:35:25;5.28;66.73
67572;SHT31;54397;47.506;19.158;2023-01-26T10:38:51;4.83;68.24
67572;SHT31;54397;47.506;19.158;2023-01-26T10:42:17;4.51;70.02
67572;SHT31;54397;47.506;19.158;2023-01-26T10:45:44;4.41;70.75
67572;SHT31;54397;47.506;19.158;2023-01-26T10:52:28;4.18;71.56
67572;SHT31;54397;47.506;19.158;2023-01-26T10:56:04;4.41;81.60
67572;SHT31;54397;47.506;19.158;2023-01-26T10:59:38;5.45;87.28
67572;SHT31;54397;47.506;19.158;2023-01-26T11:06:36;6.19;74.14
67572;SHT31;54397;47.506;19.158;2023-01-26T11:14:14;6.40;73.35
67572;SHT31;54397;47.506;19.158;2023-01-26T11:17:37;6.05;67.94
67572;SHT31;54397;47.506;19.158;2023-01-26T11:32:25;4.76;72.96
67572;SHT31;54397;47.506;19.158;2023-01-26T11:39:18;4.55;73.44
67572;SHT31;54397;47.506;19.158;2023-01-26T11:50:29;4.54;73.45
67572;SHT31;54397;47.506;19.158;2023-01-26T12:01:28;4.56;74.14
67572;SHT31;54397;47.506;19.158;2023-01-26T12:04:51;4.51;73.79
67572;SHT31;54397;47.506;19.158;2023-01-26T12:08:24;4.49;73.66
67572;SHT31;54397;47.506;19.158;2023-01-26T12:15:36;4.48;73.66
67572;SHT31;54397;47.506;19.158;2023-01-26T12:19:50;4.51;74.18
67572;SHT31;54397;47.506;19.158;2023-01-26T12:26:25;4.52;73.96
67572;SHT31;54397;47.506;19.158;2023-01-26T12:30:00;4.55;73.44
67572;SHT31;54397;47.506;19.158;2023-01-26T12:33:24;4.55;73.77
67572;SHT31;54397;47.506;19.158;2023-01-26T12:51:31;5.82;75.31
67572;SHT31;54397;47.506;19.158;2023-01-26T12:58:44;5.81;68.96
67572;SHT31;54397;47.506;19.158;2023-01-26T13:02:28;5.50;69.56
67572;SHT31;54397;47.506;19.158;2023-01-26T13:09:23;4.92;72.76
67572;SHT31;54397;47.506;19.158;2023-01-26T13:23:37;4.56;74.76
67572;SHT31;54397;47.506;19.158;2023-01-26T13:27:00;4.48;74.65
67572;SHT31;54397;47.506;19.158;2023-01-26T13:33:47;4.41;74.29
67572;SHT31;54397;47.506;19.158;2023-01-26T13:37:18;4.30;74.78
67572;SHT31;54397;47.506;19.158;2023-01-26T13:40:43;4.21;75.03
67572;SHT31;54397;47.506;19.158;2023-01-26T13:44:16;4.25;74.96
67572;SHT31;54397;47.506;19.158;2023-01-26T13:47:45;4.21;75.32
67572;SHT31;54397;47.506;19.158;2023-01-26T13:51:14;4.28;75.09
67572;SHT31;54397;47.506;19.158;2023-01-26T13:54:38;4.27;75.14
67572;SHT31;54397;47.506;19.158;2023-01-26T13:58:12;4.24;75.36
67572;SHT31;54397;47.506;19.158;2023-01-26T14:01:50;4.31;73.78
67572;SHT31;54397;47.506;19.158;2023-01-26T14:05:20;4.30;74.68
67572;SHT31;54397;47.506;19.158;2023-01-26T14:08:50;4.77;84.59
67572;SHT31;54397;47.506;19.158;2023-01-26T14:12:21;5.23;79.87
67572;SHT31;54397;47.506;19.158;2023-01-26T14:15:57;5.40;79.11
67572;SHT31;54397;47.506;19.158;2023-01-26T14:19:25;5.54;80.19
67572;SHT31;54397;47.506;19.158;2023-01-26T14:26:31;5.61;80.48
67572;SHT31;54397;47.506;19.158;2023-01-26T14:29:53;5.45;74.01
67572;SHT31;54397;47.506;19.158;2023-01-26T14:33:17;5.28;73.78
67572;SHT31;54397;47.506;19.158;2023-01-26T14:36:39;4.95;75.56
67572;SHT31;54397;47.506;19.158;2023-01-26T14:40:20;4.72;75.24
67572;SHT31;54397;47.506;19.158;2023-01-26T14:43:42;4.49;75.30
67572;SHT31;54397;47.506;19.158;2023-01-26T14:47:17;4.33;75.72
67572;SHT31;54397;47.506;19.158;2023-01-26T14:50:40;4.28;75.78
67572;SHT31;54397;47.506;19.158;2023-01-26T14:54:34;4.14;75.50
67572;SHT31;54397;47.506;19.158;2023-01-26T14:57:58;4.01;73.39
67572;SHT31;54397;47.506;19.158;2023-01-26T15:01:27;3.93;74.54
67572;SHT31;54397;47.506;19.158;2023-01-26T15:05:02;3.99;74.11
67572;SHT31;54397;47.506;19.158;2023-01-26T15:08:26;4.06;73.89
67572;SHT31;54397;47.506;19.158;2023-01-26T15:11:52;4.08;73.67
67572;SHT31;54397;47.506;19.158;2023-01-26T15:16:22;4.30;81.39
67572;SHT31;54397;47.506;19.158;2023-01-26T15:19:44;4.82;80.71
67572;SHT31;54397;47.506;19.158;2023-01-26T15:23:27;5.23;78.36
67572;SHT31;54397;47.506;19.158;2023-01-26T15:26:49;5.58;79.34
67572;SHT31;54397;47.506;19.158;2023-01-26T15:30:15;5.65;77.06
67572;SHT31;54397;47.506;19.158;2023-01-26T15:33:48;5.66;75.52
67572;SHT31;54397;47.506;19.158;2023-01-26T15:37:27;5.66;71.40
67572;SHT31;54397;47.506;19.158;2023-01-26T15:40:52;5.35;68.39
67572;SHT31;54397;47.506;19.158;2023-01-26T15:44:16;5.10;68.73
67572;SHT31;54397;47.506;19.158;2023-01-26T15:47:38;4.86;69.38
67572;SHT31;54397;47.506;19.158;2023-01-26T15:51:02;4.71;70.15
67572;SHT31;54397;47.506;19.158;2023-01-26T15:54:28;4.55;70.26
67572;SHT31;54397;47.506;19.158;2023-01-26T15:57:50;4.40;69.83
67572;SHT31;54397;47.506;19.158;2023-01-26T16:01:15;4.30;69.67
67572;SHT31;54397;47.506;19.158;2023-01-26T16:04:42;4.25;70.38
67572;SHT31;54397;47.506;19.158;2023-01-26T16:08:04;4.18;71.17
67572;SHT31;54397;47.506;19.158;2023-01-26T16:11:30;4.14;71.21
67572;SHT31;54397;47.506;19.158;2023-01-26T16:18:43;4.14;72.48
67572;SHT31;54397;47.506;19.158;2023-01-26T16:22:05;4.06;72.56
67572;SHT31;54397;47.506;19.158;2023-01-26T16:25:29;4.17;71.60
67572;SHT31;54397;47.506;19.158;2023-01-26T16:28:51;4.14;72.03
67572;SHT31;54397;47.506;19.158;2023-01-26T16:32:26;4.22;70.42
67572;SHT31;54397;47.506;19.158;2023-01-26T16:35:50;4.47;77.16
67572;SHT31;54397;47.506;19.158;2023-01-26T16:39:12;4.92;78.32
67572;SHT31;54397;47.506;19.158;2023-01-26T16:42:38;5.26;76.15
67572;SHT31;54397;47.506;19.158;2023-01-26T16:46:00;5.59;76.57
67572;SHT31;54397;47.506;19.158;2023-01-26T16:49:24;5.75;73.69
67572;SHT31;54397;47.506;19.158;2023-01-26T16:52:47;5.48;65.93
67572;SHT31;54397;47.506;19.158;2023-01-26T16:56:10;5.20;65.58
67572;SHT31;54397;47.506;19.158;2023-01-26T16:59:32;4.85;65.64
67572;SHT31;54397;47.506;19.158;2023-01-26T17:02:54;4.66;66.68
67572;SHT31;54397;47.506;19.158;2023-01-26T17:06:19;4.51;67.44
67572;SHT31;54397;47.506;19.158;2023-01-26T17:09:41;4.38;67.71
67572;SHT31;54397;47.506;19.158;2023-01-26T17:13:02;4.21;68.95
67572;SHT31;54397;47.506;19.158;2023-01-26T17:16:27;4.04;68.46
67572;SHT31;54397;47.506;19.158;2023-01-26T17:19:57;3.96;68.23
67572;SHT31;54397;47.506;19.158;2023-01-26T17:23:38;3.91;68.83
67572;SHT31;54397;47.506;19.158;2023-01-26T17:27:04;3.91;68.93
67572;SHT31;54397;47.506;19.158;2023-01-26T17:30:26;3.90;68.86
67572;SHT31;54397;47.506;19.158;2023-01-26T17:33:50;3.96;68.02
67572;SHT31;54397;47.506;19.158;2023-01-26T17:37:13;4.00;68.20
67572;SHT31;54397;47.506;19.158;2023-01-26T17:40:35;4.03;68.40
67572;SHT31;54397;47.506;19.158;2023-01-26T17:43:57;3.94;69.48
67572;SHT31;54397;47.506;19.158;2023-01-26T17:47:18;3.89;69.76
67572;SHT31;54397;47.506;19.158;2023-01-26T17:50:47;3.94;68.80
67572;SHT31;54397;47.506;19.158;2023-01-26T17:54:09;4.01;69.28
67572;SHT31;54397;47.506;19.158;2023-01-26T17:57:31;3.96;69.43
67572;SHT31;54397;47.506;19.158;2023-01-26T18:00:53;3.85;70.83
67572;SHT31;54397;47.506;19.158;2023-01-26T18:04:14;3.78;71.02
67572;SHT31;54397;47.506;19.158;2023-01-26T18:07:36;3.75;70.37
67572;SHT31;54397;47.506;19.158;2023-01-26T18:10:59;3.83;70.70
67572;SHT31;54397;47.506;19.158;2023-01-26T18:14:21;3.82;71.17
67572;SHT31;54397;47.506;19.158;2023-01-26T18:17:43;3.97;70.54
67572;SHT31;54397;47.506;19.158;2023-01-26T18:24:37;3.91;71.34
67572;SHT31;54397;47.506;19.158;2023-01-26T18:27:59;3.86;71.20
67572;SHT31;54397;47.506;19.158;2023-01-26T18:31:26;3.83;71.36
67572;SHT31;54397;47.506;19.158;2023-01-26T18:34:49;3.76;71.63
67572;SHT31;54397;47.506;19.158;2023-01-26T18:38:10;3.79;71.60
67572;SHT31;54397;47.506;19.158;2023-01-26T18:41:32;3.79;71.28
67572;SHT31;54397;47.506;19.158;2023-01-26T18:44:56;3.70;71.36
67572;SHT31;54397;47.506;19.158;2023-01-26T18:48:23;3.70;70.85
67572;SHT31;54397;47.506;19.158;2023-01-26T18:51:45;3.79;70.42
67572;SHT31;54397;47.506;19.158;2023-01-26T18:55:10;3.78;71.24
67572;SHT31;54397;47.506;19.158;2023-01-26T18:58:33;3.68;71.42
67572;SHT31;54397;47.506;19.158;2023-01-26T19:01:59;3.73;71.40
67572;SHT31;54397;47.506;19.158;2023-01-26T19:05:21;3.75;70.45
67572;SHT31;54397;47.506;19.158;2023-01-26T19:08:44;3.87;69.12
67572;SHT31;54397;47.506;19.158;2023-01-26T19:12:09;3.90;69.18
67572;SHT31;54397;47.506;19.158;2023-01-26T19:15:33;3.85;69.68
67572;SHT31;54397;47.506;19.158;2023-01-26T19:18:55;3.75;70.51
67572;SHT31;54397;47.506;19.158;2023-01-26T19:22:16;3.76;70.19
67572;SHT31;54397;47.506;19.158;2023-01-26T19:25:38;3.78;70.61
67572;SHT31;54397;47.506;19.158;2023-01-26T19:29:00;3.73;70.79
67572;SHT31;54397;47.506;19.158;2023-01-26T19:32:24;3.69;70.24
67572;SHT31;54397;47.506;19.158;2023-01-26T19:35:48;3.66;70.32
67572;SHT31;54397;47.506;19.158;2023-01-26T19:39:10;3.70;70.27
67572;SHT31;54397;47.506;19.158;2023-01-26T19:42:36;3.73;70.37
67572;SHT31;54397;47.506;19.158;2023-01-26T19:45:57;3.80;70.22
67572;SHT31;54397;47.506;19.158;2023-01-26T19:49:19;3.73;70.64
67572;SHT31;54397;47.506;19.158;2023-01-26T19:52:41;3.73;70.67
67572;SHT31;54397;47.506;19.158;2023-01-26T19:56:14;3.62;70.85
67572;SHT31;54397;47.506;19.158;2023-01-26T19:59:39;3.63;71.04
67572;SHT31;54397;47.506;19.158;2023-01-26T20:03:00;3.61;70.79
67572;SHT31;54397;47.506;19.158;2023-01-26T20:06:26;4.10;84.72
67572;SHT31;54397;47.506;19.158;2023-01-26T20:09:48;4.92;83.81
67572;SHT31;54397;47.506;19.158;2023-01-26T20:13:11;5.44;79.01
67572;SHT31;54397;47.506;19.158;2023-01-26T20:16:33;5.68;73.62
67572;SHT31;54397;47.506;19.158;2023-01-26T20:19:58;5.63;70.27
67572;SHT31;54397;47.506;19.158;2023-01-26T20:23:20;5.62;71.65
67572;SHT31;54397;47.506;19.158;2023-01-26T20:26:44;5.30;65.21
67572;SHT31;54397;47.506;19.158;2023-01-26T20:30:08;4.96;65.95
67572;SHT31;54397;47.506;19.158;2023-01-26T20:33:32;4.66;66.49
67572;SHT31;54397;47.506;19.158;2023-01-26T20:36:54;4.41;67.02
67572;SHT31;54397;47.506;19.158;2023-01-26T20:40:20;4.20;67.97
67572;SHT31;54397;47.506;19.158;2023-01-26T20:43:44;4.01;68.88
67572;SHT31;54397;47.506;19.158;2023-01-26T20:47:19;4.03;68.32
67572;SHT31;54397;47.506;19.158;2023-01-26T20:50:42;4.01;67.71
67572;SHT31;54397;47.506;19.158;2023-01-26T20:54:05;3.99;67.74
67572;SHT31;54397;47.506;19.158;2023-01-26T20:57:30;3.85;67.92
67572;SHT31;54397;47.506;19.158;2023-01-26T21:00:52;3.90;68.35
67572;SHT31;54397;47.506;19.158;2023-01-26T21:04:14;3.94;74.84
67572;SHT31;54397;47.506;19.158;2023-01-26T21:07:38;4.30;77.57
67572;SHT31;54397;47.506;19.158;2023-01-26T21:10:59;4.66;75.96
67572;SHT31;54397;47.506;19.158;2023-01-26T21:14:22;4.99;75.73
67572;SHT31;54397;47.506;19.158;2023-01-26T21:17:44;5.19;71.87
67572;SHT31;54397;47.506;19.158;2023-01-26T21:21:10;5.24;71.55
67572;SHT31;54397;47.506;19.158;2023-01-26T21:24:36;5.43;73.14
67572;SHT31;54397;47.506;19.158;2023-01-26T21:28:00;5.47;73.30
67572;SHT31;54397;47.506;19.158;2023-01-26T21:31:26;5.14;65.49
67572;SHT31;54397;47.506;19.158;2023-01-26T21:34:51;4.89;65.95
67572;SHT31;54397;47.506;19.158;2023-01-26T21:38:14;4.45;67.74
67572;SHT31;54397;47.506;19.158;2023-01-26T21:41:36;4.24;68.95
67572;SHT31;54397;47.506;19.158;2023-01-26T21:45:16;4.03;69.32
67572;SHT31;54397;47.506;19.158;2023-01-26T21:48:58;3.85;69.91
67572;SHT31;54397;47.506;19.158;2023-01-26T21:52:20;3.80;70.04
67572;SHT31;54397;47.506;19.158;2023-01-26T21:56:00;3.80;70.53
67572;SHT31;54397;47.506;19.158;2023-01-26T21:59:22;3.73;70.07
67572;SHT31;54397;47.506;19.158;2023-01-26T22:02:47;3.69;70.94
67572;SHT31;54397;47.506;19.158;2023-01-26T22:06:13;3.75;70.15
67572;SHT31;54397;47.506;19.158;2023-01-26T22:09:35;3.70;70.59
67572;SHT31;54397;47.506;19.158;2023-01-26T22:12:59;3.82;70.03
67572;SHT31;54397;47.506;19.158;2023-01-26T22:16:21;3.79;78.10
67572;SHT31;54397;47.506;19.158;2023-01-26T22:19:43;4.14;80.16
67572;SHT31;54397;47.506;19.158;2023-01-26T22:23:04;4.56;78.75
67572;SHT31;54397;47.506;19.158;2023-01-26T22:26:26;4.80;76.68
67572;SHT31;54397;47.506;19.158;2023-01-26T22:29:50;4.99;75.82
67572;SHT31;54397;47.506;19.158;2023-01-26T22:33:14;5.16;74.51
67572;SHT31;54397;47.506;19.158;2023-01-26T22:36:36;5.13;66.88
67572;SHT31;54397;47.506;19.158;2023-01-26T22:40:01;4.83;67.10
67572;SHT31;54397;47.506;19.158;2023-01-26T22:43:25;4.51;67.72
67572;SHT31;54397;47.506;19.158;2023-01-26T22:46:52;4.27;68.84
67572;SHT31;54397;47.506;19.158;2023-01-26T22:50:14;4.08;70.36
67572;SHT31;54397;47.506;19.158;2023-01-26T22:53:41;3.93;70.48
67572;SHT31;54397;47.506;19.158;2023-01-26T22:57:05;3.85;70.23
67572;SHT31;54397;47.506;19.158;2023-01-26T23:00:27;3.70;71.34
67572;SHT31;54397;47.506;19.158;2023-01-26T23:03:51;3.66;71.69
67572;SHT31;54397;47.506;19.158;2023-01-26T23:07:16;3.56;72.36
67572;SHT31;54397;47.506;19.158;2023-01-26T23:10:40;3.49;73.42
67572;SHT31;54397;47.506;19.158;2023-01-26T23:14:04;3.48;72.78
67572;SHT31;54397;47.506;19.158;2023-01-26T23:17:26;3.46;73.02
67572;SHT31;54397;47.506;19.158;2023-01-26T23:20:48;3.49;73.31
67572;SHT31;54397;47.506;19.158;2023-01-26T23:24:09;3.43;73.68
67572;SHT31;54397;47.506;19.158;2023-01-26T23:27:31;3.38;73.72
67572;SHT31;54397;47.506;19.158;2023-01-26T23:30:54;3.46;73.06